createdAt,value
2023-05-24T00:00:53.424Z,24.44
2023-05-24T00:03:21.661Z,24.44
2023-05-24T00:05:50.068Z,24.43
2023-05-24T00:08:19.529Z,24.43
2023-05-24T00:10:48.596Z,24.43
2023-05-24T00:13:17.162Z,24.42
2023-05-24T00:15:46.681Z,24.42
2023-05-24T00:18:14.674Z,24.41
2023-05-24T00:20:42.969Z,24.40
2023-05-24T00:23:11.212Z,24.43
2023-05-24T00:25:40.532Z,24.40
2023-05-24T00:28:08.607Z,24.40
2023-05-24T00:30:36.579Z,24.42
2023-05-24T00:33:04.672Z,24.40
2023-05-24T00:35:32.811Z,24.40
2023-05-24T00:38:00.868Z,24.40
2023-05-24T00:40:28.848Z,24.40
2023-05-24T00:42:58.359Z,24.40
2023-05-24T00:45:26.424Z,24.40
2023-05-24T00:47:54.507Z,24.40
2023-05-24T00:50:22.717Z,24.39
2023-05-24T00:52:51.101Z,24.39
2023-05-24T00:55:19.209Z,24.39
2023-05-24T00:57:47.279Z,24.39
2023-05-24T01:00:17.293Z,24.39
2023-05-24T01:02:45.712Z,24.38
2023-05-24T01:05:14.465Z,24.38
2023-05-24T01:08:00.942Z,24.37
2023-05-24T01:10:33.805Z,24.35
2023-05-24T01:13:05.819Z,24.35
2023-05-24T01:15:42.100Z,24.34
2023-05-24T01:18:16.524Z,24.32
2023-05-24T01:20:46.855Z,24.33
2023-05-24T01:23:34.519Z,24.33
2023-05-24T01:26:09.490Z,24.32
2023-05-24T01:28:38.945Z,24.31
2023-05-24T01:31:07.034Z,24.32
2023-05-24T01:33:35.122Z,24.31
2023-05-24T01:36:03.189Z,24.31
2023-05-24T01:38:31.223Z,24.32
2023-05-24T01:41:00.970Z,24.32
2023-05-24T01:43:32.381Z,24.32
2023-05-24T01:46:04.802Z,24.33
2023-05-24T01:48:35.743Z,24.33
2023-05-24T01:51:07.322Z,24.33
2023-05-24T01:53:36.034Z,24.32
2023-05-24T01:56:04.963Z,24.32
2023-05-24T01:58:33.019Z,24.32
2023-05-24T02:01:02.520Z,24.32
2023-05-24T02:03:30.612Z,24.33
2023-05-24T02:05:58.667Z,24.32
2023-05-24T02:08:26.792Z,24.33
2023-05-24T02:10:54.985Z,24.32
2023-05-24T02:13:23.103Z,24.32
2023-05-24T02:15:53.857Z,24.32
2023-05-24T02:18:23.359Z,24.31
2023-05-24T02:20:54.404Z,24.30
2023-05-24T02:23:22.510Z,24.30
2023-05-24T02:25:50.618Z,24.30
2023-05-24T02:28:18.622Z,24.29
2023-05-24T02:30:47.037Z,24.29
2023-05-24T02:33:15.128Z,24.28
2023-05-24T02:35:44.618Z,24.27
2023-05-24T02:38:12.679Z,24.28
2023-05-24T02:40:41.141Z,24.28
2023-05-24T02:43:09.818Z,24.27
2023-05-24T02:45:38.028Z,24.28
2023-05-24T02:48:06.455Z,24.28
2023-05-24T02:50:34.630Z,24.29
2023-05-24T02:53:04.241Z,24.29
2023-05-24T02:55:32.963Z,24.28
2023-05-24T02:58:01.270Z,24.29
2023-05-24T03:00:29.374Z,24.29
2023-05-24T03:03:02.721Z,24.28
2023-05-24T03:05:30.859Z,24.29
2023-05-24T03:07:59.062Z,24.29
2023-05-24T03:10:28.554Z,24.30
2023-05-24T03:12:56.681Z,24.29
2023-05-24T03:15:24.727Z,24.29
2023-05-24T03:17:52.954Z,24.28
2023-05-24T03:20:21.728Z,24.28
2023-05-24T03:22:49.829Z,24.27
2023-05-24T03:25:17.901Z,24.26
2023-05-24T03:27:47.401Z,24.26
2023-05-24T03:30:15.556Z,24.26
2023-05-24T03:32:43.620Z,24.25
2023-05-24T03:35:12.352Z,24.25
2023-05-24T03:37:40.675Z,24.24
2023-05-24T03:40:10.057Z,24.25
2023-05-24T03:42:38.173Z,24.25
2023-05-24T03:45:08.891Z,24.27
2023-05-24T03:47:36.894Z,24.26
2023-05-24T03:50:07.294Z,24.28
2023-05-24T03:52:35.374Z,24.29
2023-05-24T03:55:03.389Z,24.29
2023-05-24T03:57:31.357Z,24.29
2023-05-24T04:00:00.409Z,24.29
2023-05-24T04:02:30.570Z,24.29
2023-05-24T04:04:58.813Z,24.30
2023-05-24T04:07:26.946Z,24.30
2023-05-24T04:09:55.005Z,24.31
2023-05-24T04:12:23.029Z,24.30
2023-05-24T04:14:51.915Z,24.30
2023-05-24T04:17:20.180Z,24.29
2023-05-24T04:19:49.734Z,24.29
2023-05-24T04:22:18.691Z,24.30
2023-05-24T04:24:46.908Z,24.29
2023-05-24T04:27:15.140Z,24.30
2023-05-24T04:29:43.315Z,24.29
2023-05-24T04:32:14.984Z,24.29
2023-05-24T04:34:43.813Z,24.30
2023-05-24T04:37:13.913Z,24.31
2023-05-24T04:39:43.584Z,24.31
2023-05-24T04:42:11.887Z,24.33
2023-05-24T04:44:41.508Z,24.35
2023-05-24T04:47:10.741Z,24.35
2023-05-24T04:49:39.135Z,24.37
2023-05-24T04:52:07.975Z,24.38
2023-05-24T04:54:37.454Z,24.40
2023-05-24T04:57:05.747Z,24.41
2023-05-24T04:59:33.773Z,24.41
2023-05-24T05:02:01.726Z,24.42
2023-05-24T05:04:29.886Z,24.41
2023-05-24T05:06:58.575Z,24.42
2023-05-24T05:09:27.963Z,24.40
2023-05-24T05:11:58.594Z,24.39
2023-05-24T05:14:26.789Z,24.39
2023-05-24T05:16:54.990Z,24.38
2023-05-24T05:19:23.272Z,24.37
2023-05-24T05:21:51.861Z,24.38
2023-05-24T05:24:20.235Z,24.38
2023-05-24T05:26:48.350Z,24.35
2023-05-24T05:29:17.807Z,24.38
2023-05-24T05:31:45.935Z,24.37
2023-05-24T05:34:14.108Z,24.38
2023-05-24T05:36:42.735Z,24.39
2023-05-24T05:39:10.817Z,24.39
2023-05-24T05:41:40.018Z,24.40
2023-05-24T05:44:08.210Z,24.40
2023-05-24T05:46:37.672Z,24.41
2023-05-24T05:49:06.526Z,24.44
2023-05-24T05:51:34.602Z,24.46
2023-05-24T05:54:02.740Z,24.45
2023-05-24T05:56:30.872Z,24.47
2023-05-24T05:58:58.909Z,24.48
2023-05-24T06:01:27.099Z,24.48
2023-05-24T06:03:56.574Z,24.51
2023-05-24T06:06:24.621Z,24.51
2023-05-24T06:08:52.684Z,24.52
2023-05-24T06:11:21.154Z,24.53
2023-05-24T06:13:49.377Z,24.54
2023-05-24T06:16:18.507Z,24.56
2023-05-24T06:18:57.103Z,24.57
2023-05-24T06:21:37.175Z,24.58
2023-05-24T06:24:05.729Z,24.61
2023-05-24T06:26:33.913Z,24.62
2023-05-24T06:29:02.491Z,24.63
2023-05-24T06:31:30.584Z,24.65
2023-05-24T06:36:30.852Z,24.68
2023-05-24T06:39:00.251Z,24.70
2023-05-24T06:41:28.684Z,24.71
2023-05-24T06:43:56.818Z,24.73
2023-05-24T06:46:24.904Z,24.75
2023-05-24T06:48:53.136Z,24.76
2023-05-24T06:51:21.332Z,24.76
2023-05-24T06:53:49.426Z,24.77
2023-05-24T06:56:18.957Z,24.78
2023-05-24T06:58:47.042Z,24.79
2023-05-24T07:01:15.970Z,24.81
2023-05-24T07:03:44.271Z,24.82
2023-05-24T07:06:14.218Z,24.84
2023-05-24T07:08:46.378Z,24.86
2023-05-24T07:11:14.576Z,24.86
2023-05-24T07:13:44.511Z,24.86
2023-05-24T07:16:13.003Z,24.86
2023-05-24T07:18:41.925Z,24.87
2023-05-24T07:21:10.228Z,24.84
2023-05-24T07:23:38.766Z,24.85
2023-05-24T07:26:07.631Z,24.84
2023-05-24T07:28:37.935Z,24.84
2023-05-24T07:31:08.390Z,24.83
2023-05-24T07:33:37.667Z,24.83
2023-05-24T07:36:06.930Z,24.82
2023-05-24T07:38:36.232Z,24.82
2023-05-24T07:41:04.908Z,24.81
2023-05-24T07:43:33.194Z,24.79
2023-05-24T07:46:01.356Z,24.79
2023-05-24T07:48:30.988Z,24.78
2023-05-24T07:50:59.223Z,24.78
2023-05-24T07:53:27.472Z,24.77
2023-05-24T07:55:56.938Z,24.77
2023-05-24T07:58:25.095Z,24.76
2023-05-24T08:00:53.671Z,24.75
2023-05-24T08:03:22.005Z,24.75
2023-05-24T08:05:51.954Z,24.76
2023-05-24T08:08:20.844Z,24.76
2023-05-24T08:10:48.994Z,24.76
2023-05-24T08:13:16.981Z,24.76
2023-05-24T08:15:46.036Z,24.76
2023-05-24T08:18:14.628Z,24.78
2023-05-24T08:20:42.805Z,24.77
2023-05-24T08:23:12.786Z,24.77
2023-05-24T08:25:41.402Z,24.74
2023-05-24T08:28:11.110Z,24.75
2023-05-24T08:30:39.500Z,24.76
2023-05-24T08:33:07.973Z,24.77
2023-05-24T08:35:37.072Z,24.79
2023-05-24T08:38:05.060Z,24.78
2023-05-24T08:40:34.901Z,24.83
2023-05-24T08:43:02.994Z,24.86
2023-05-24T08:45:31.948Z,24.87
2023-05-24T08:48:00.017Z,24.88
2023-05-24T08:50:28.680Z,24.88
2023-05-24T08:52:56.824Z,24.88
2023-05-24T08:55:24.907Z,24.90
2023-05-24T08:57:55.140Z,24.92
2023-05-24T09:00:24.035Z,24.93
2023-05-24T09:02:55.362Z,24.94
2023-05-24T09:05:23.407Z,24.96
2023-05-24T09:07:51.610Z,24.99
2023-05-24T09:10:21.582Z,24.99
2023-05-24T09:12:52.457Z,24.99
2023-05-24T09:15:22.524Z,25.01
2023-05-24T09:17:50.529Z,25.00
2023-05-24T09:20:19.282Z,25.01
2023-05-24T09:22:47.446Z,25.01
2023-05-24T09:25:15.714Z,25.05
2023-05-24T09:27:51.678Z,25.06
2023-05-24T09:30:21.204Z,25.06
2023-05-24T09:32:56.354Z,25.07
2023-05-24T09:35:24.471Z,25.09
2023-05-24T09:37:52.854Z,25.10
2023-05-24T09:40:20.952Z,25.10
2023-05-24T09:42:51.760Z,25.13
2023-05-24T09:45:22.205Z,25.13
2023-05-24T09:47:50.368Z,25.15
2023-05-24T09:50:18.436Z,25.16
2023-05-24T09:52:47.016Z,25.15
2023-05-24T09:55:15.644Z,25.16
2023-05-24T09:57:45.558Z,25.15
2023-05-24T10:00:17.836Z,25.14
2023-05-24T10:02:53.493Z,25.15
2023-05-24T10:05:22.425Z,25.16
2023-05-24T10:07:51.751Z,25.18
2023-05-24T10:10:21.235Z,25.20
2023-05-24T10:12:49.261Z,25.20
2023-05-24T10:15:19.164Z,25.20
2023-05-24T10:17:48.669Z,25.21
2023-05-24T10:20:18.799Z,25.23
2023-05-24T10:22:47.646Z,25.25
2023-05-24T10:25:17.261Z,25.26
2023-05-24T10:27:47.545Z,25.26
2023-05-24T10:30:18.179Z,25.27
2023-05-24T10:32:46.865Z,25.29
2023-05-24T10:35:16.376Z,25.29
2023-05-24T10:37:45.869Z,25.31
2023-05-24T10:40:25.430Z,25.32
2023-05-24T10:42:54.418Z,25.32
2023-05-24T10:45:35.379Z,25.31
2023-05-24T10:48:33.917Z,25.31
2023-05-24T10:51:23.996Z,25.31
2023-05-24T10:53:52.462Z,25.30
2023-05-24T10:56:21.178Z,25.32
2023-05-24T10:59:00.747Z,25.30
2023-05-24T11:01:29.756Z,25.32
2023-05-24T11:04:09.139Z,25.31
2023-05-24T11:06:51.537Z,25.32
2023-05-24T11:09:20.843Z,25.33
2023-05-24T11:11:50.693Z,25.33
2023-05-24T11:14:23.399Z,25.34
2023-05-24T11:16:52.194Z,25.33
2023-05-24T11:19:21.912Z,25.34
2023-05-24T11:21:52.512Z,25.34
2023-05-24T11:24:22.136Z,25.33
2023-05-24T11:26:52.672Z,25.35
2023-05-24T11:29:22.479Z,25.35
2023-05-24T11:31:51.756Z,25.35
2023-05-24T11:34:20.163Z,25.34
2023-05-24T11:36:48.968Z,25.34
2023-05-24T11:39:18.400Z,25.33
2023-05-24T11:41:46.989Z,25.33
2023-05-24T11:44:18.170Z,25.33
2023-05-24T11:46:46.955Z,25.33
2023-05-24T11:49:16.581Z,25.32
2023-05-24T11:51:45.715Z,25.33
2023-05-24T11:54:13.869Z,25.33
2023-05-24T11:56:43.970Z,25.35
2023-05-24T11:59:15.812Z,25.37
2023-05-24T12:01:44.108Z,25.37
2023-05-24T12:04:12.913Z,25.38
2023-05-24T12:06:42.136Z,25.41
2023-05-24T12:09:13.983Z,25.41
2023-05-24T12:11:45.154Z,25.42
2023-05-24T12:14:13.898Z,25.42
2023-05-24T12:16:43.038Z,25.44
2023-05-24T12:19:31.451Z,25.45
2023-05-24T12:22:00.977Z,25.46
2023-05-24T12:24:29.616Z,25.46
2023-05-24T12:27:02.095Z,25.47
2023-05-24T12:29:34.871Z,25.47
2023-05-24T12:32:03.168Z,25.45
2023-05-24T12:34:31.210Z,25.48
2023-05-24T12:37:00.533Z,25.47
2023-05-24T12:39:32.141Z,25.46
2023-05-24T12:42:03.427Z,25.47
2023-05-24T12:44:31.698Z,25.47
2023-05-24T12:47:01.023Z,25.47
2023-05-24T12:49:29.008Z,25.47
2023-05-24T12:51:58.431Z,25.47
2023-05-24T12:54:27.942Z,25.47
2023-05-24T12:56:57.582Z,25.47
2023-05-24T12:59:27.882Z,25.48
2023-05-24T13:01:55.867Z,25.48
2023-05-24T13:04:27.107Z,25.49
2023-05-24T13:06:55.611Z,25.49
2023-05-24T13:09:24.507Z,25.48
2023-05-24T13:11:54.201Z,25.50
2023-05-24T13:14:22.512Z,25.53
2023-05-24T13:16:52.640Z,25.52
2023-05-24T13:19:20.811Z,25.54
2023-05-24T13:21:49.563Z,25.54
2023-05-24T13:24:17.650Z,25.55
2023-05-24T13:26:46.147Z,25.56
2023-05-24T13:31:46.449Z,25.57
2023-05-24T13:34:16.759Z,25.59
2023-05-24T13:36:46.373Z,25.59
2023-05-24T13:39:16.594Z,25.60
2023-05-24T13:41:46.758Z,25.60
2023-05-24T13:44:14.881Z,25.60
2023-05-24T13:46:43.861Z,25.61
2023-05-24T13:49:12.211Z,25.60
2023-05-24T13:51:42.258Z,25.61
2023-05-24T13:54:11.104Z,25.62
2023-05-24T13:56:39.950Z,25.62
2023-05-24T13:59:09.412Z,25.62
2023-05-24T14:01:39.390Z,25.63
2023-05-24T14:04:07.980Z,25.64
2023-05-24T14:06:38.234Z,25.65
2023-05-24T14:09:08.492Z,25.67
2023-05-24T14:11:38.560Z,25.68
2023-05-24T14:14:57.771Z,25.70
2023-05-24T14:16:56.343Z,25.71
2023-05-24T14:19:24.668Z,25.72
2023-05-24T14:21:53.506Z,25.72
2023-05-24T14:24:23.917Z,25.73
2023-05-24T14:26:52.073Z,25.74
2023-05-24T14:29:20.969Z,25.75
2023-05-24T14:31:49.323Z,25.78
2023-05-24T14:34:18.242Z,25.79
2023-05-24T14:36:48.069Z,25.81
2023-05-24T14:39:16.131Z,25.84
2023-05-24T14:41:46.552Z,25.86
2023-05-24T14:44:14.534Z,25.88
2023-05-24T14:46:46.562Z,25.91
2023-05-24T14:49:14.531Z,25.94
2023-05-24T14:51:43.546Z,25.96
2023-05-24T14:54:12.270Z,25.98
2023-05-24T14:56:41.320Z,26.00
2023-05-24T14:59:11.946Z,26.03
2023-05-24T15:01:40.748Z,26.05
2023-05-24T15:04:10.041Z,26.07
2023-05-24T15:06:38.740Z,26.07
2023-05-24T15:09:08.736Z,26.10
2023-05-24T15:11:38.528Z,26.13
2023-05-24T15:14:07.411Z,26.15
2023-05-24T15:16:37.544Z,26.17
2023-05-24T15:19:05.710Z,26.18
2023-05-24T15:21:33.740Z,26.18
2023-05-24T15:24:02.600Z,26.20
2023-05-24T15:26:30.767Z,26.21
2023-05-24T15:29:03.338Z,26.20
2023-05-24T15:31:31.394Z,26.22
2023-05-24T15:34:00.798Z,26.23
2023-05-24T15:36:30.332Z,26.24
2023-05-24T15:38:58.293Z,26.25
2023-05-24T15:41:28.220Z,26.26
2023-05-24T15:43:56.289Z,26.25
2023-05-24T15:46:24.365Z,26.24
2023-05-24T15:48:53.172Z,26.26
2023-05-24T15:52:01.526Z,26.27
2023-05-24T15:54:12.013Z,26.27
2023-05-24T15:56:40.081Z,26.27
2023-05-24T15:59:08.118Z,26.28
2023-05-24T16:01:37.839Z,26.29
2023-05-24T16:04:05.922Z,26.30
2023-05-24T16:06:37.432Z,26.30
2023-05-24T16:09:07.204Z,26.30
2023-05-24T16:11:38.282Z,26.32
2023-05-24T16:14:06.570Z,26.32
2023-05-24T16:16:34.776Z,26.32
2023-05-24T16:19:04.151Z,26.36
2023-05-24T16:21:32.918Z,26.37
2023-05-24T16:24:04.240Z,26.36
2023-05-24T16:26:32.580Z,26.34
2023-05-24T16:29:04.801Z,26.35
2023-05-24T16:31:33.760Z,26.38
2023-05-24T16:34:01.906Z,26.38
2023-05-24T16:36:31.902Z,26.38
2023-05-24T16:38:59.932Z,26.39
2023-05-24T16:41:35.626Z,26.37
2023-05-24T16:44:03.724Z,26.35
2023-05-24T16:46:31.814Z,26.31
2023-05-24T16:49:01.907Z,26.28
2023-05-24T16:51:30.200Z,26.26
2023-05-24T16:53:59.008Z,26.24
2023-05-24T16:56:27.309Z,26.21
2023-05-24T16:58:58.102Z,26.19
2023-05-24T17:01:26.124Z,26.19
2023-05-24T17:03:54.329Z,26.18
2023-05-24T17:06:23.176Z,26.16
2023-05-24T17:08:51.182Z,26.15
2023-05-24T17:11:21.671Z,26.14
2023-05-24T17:13:50.708Z,26.12
2023-05-24T17:16:22.514Z,26.10
2023-05-24T17:18:51.023Z,26.09
2023-05-24T17:21:19.009Z,26.08
2023-05-24T17:23:47.797Z,26.07
2023-05-24T17:26:15.991Z,26.06
2023-05-24T17:28:51.292Z,26.05
2023-05-24T17:31:20.917Z,26.05
2023-05-24T17:33:49.005Z,26.02
2023-05-24T17:36:17.942Z,26.02
2023-05-24T17:38:46.005Z,25.99
2023-05-24T17:41:14.876Z,25.97
2023-05-24T17:43:42.927Z,25.96
2023-05-24T17:46:13.184Z,25.95
2023-05-24T17:48:43.750Z,25.94
2023-05-24T17:51:11.794Z,25.93
2023-05-24T17:53:41.892Z,25.91
2023-05-24T17:56:09.967Z,25.91
2023-05-24T17:58:38.037Z,25.91
2023-05-24T18:01:07.860Z,25.90
2023-05-24T18:03:36.916Z,25.89
2023-05-24T18:06:07.998Z,25.89
2023-05-24T18:08:38.132Z,25.87
2023-05-24T18:11:10.573Z,25.88
2023-05-24T18:13:44.960Z,25.86
2023-05-24T18:16:14.150Z,25.85
2023-05-24T18:18:43.891Z,25.84
2023-05-24T18:21:16.908Z,25.84
2023-05-24T18:23:44.989Z,25.84
2023-05-24T18:26:13.059Z,25.86
2023-05-24T18:28:42.896Z,25.87
2023-05-24T18:31:11.465Z,25.85
2023-05-24T18:33:41.295Z,25.84
2023-05-24T18:36:09.505Z,25.83
2023-05-24T18:38:40.199Z,25.83
2023-05-24T18:41:11.268Z,25.83
2023-05-24T18:43:39.269Z,25.82
2023-05-24T18:46:09.377Z,25.84
2023-05-24T18:48:37.300Z,25.87
2023-05-24T18:51:06.646Z,25.88
2023-05-24T18:53:38.368Z,25.86
2023-05-24T18:56:07.985Z,25.86
2023-05-24T18:58:36.939Z,25.85
2023-05-24T19:01:05.020Z,25.85
2023-05-24T19:03:34.099Z,25.84
2023-05-24T19:06:02.363Z,25.83
2023-05-24T19:08:31.491Z,25.85
2023-05-24T19:11:00.616Z,25.84
2023-05-24T19:13:34.393Z,25.84
2023-05-24T19:16:02.482Z,25.82
2023-05-24T19:18:47.367Z,25.83
2023-05-24T19:21:17.632Z,25.82
2023-05-24T19:23:48.613Z,25.82
2023-05-24T19:26:18.667Z,25.80
2023-05-24T19:28:52.448Z,25.81
2023-05-24T19:31:20.523Z,25.80
2023-05-24T19:33:59.965Z,25.80
2023-05-24T19:36:36.281Z,25.80
2023-05-24T19:39:06.444Z,25.80
2023-05-24T19:41:38.266Z,25.81
2023-05-24T19:44:07.664Z,25.81
2023-05-24T19:46:37.082Z,25.82
2023-05-24T19:49:08.303Z,25.82
2023-05-24T19:51:37.515Z,25.82
2023-05-24T19:54:10.440Z,25.83
2023-05-24T19:56:38.788Z,25.81
2023-05-24T19:59:09.697Z,25.80
2023-05-24T20:01:37.760Z,25.81
2023-05-24T20:04:05.774Z,25.80
2023-05-24T20:06:35.146Z,25.80
2023-05-24T20:09:03.721Z,25.80
2023-05-24T20:11:34.412Z,25.79
2023-05-24T20:14:02.528Z,25.78
2023-05-24T20:16:32.149Z,25.79
2023-05-24T20:19:02.586Z,25.78
2023-05-24T20:21:32.820Z,25.78
2023-05-24T20:24:02.154Z,25.78
2023-05-24T20:26:30.082Z,25.78
2023-05-24T20:28:58.148Z,25.77
2023-05-24T20:31:29.408Z,25.77
2023-05-24T20:33:58.803Z,25.76
2023-05-24T20:36:28.454Z,25.76
2023-05-24T20:38:56.539Z,25.77
2023-05-24T20:41:25.928Z,25.76
2023-05-24T20:43:53.971Z,25.75
2023-05-24T20:46:25.818Z,25.77
2023-05-24T20:48:54.100Z,25.77
2023-05-24T20:51:25.635Z,25.76
2023-05-24T20:53:53.918Z,25.76
2023-05-24T20:56:28.393Z,25.75
2023-05-24T20:59:00.214Z,25.74
2023-05-24T21:01:29.313Z,25.73
2023-05-24T21:03:57.598Z,25.73
2023-05-24T21:06:28.333Z,25.72
2023-05-24T21:08:58.947Z,25.71
2023-05-24T21:11:31.148Z,25.72
2023-05-24T21:13:59.986Z,25.72
2023-05-24T21:16:28.327Z,25.72
2023-05-24T21:18:57.779Z,25.72
2023-05-24T21:21:27.161Z,25.72
2023-05-24T21:23:57.234Z,25.71
2023-05-24T21:26:25.432Z,25.72
2023-05-24T21:28:53.629Z,25.72
2023-05-24T21:31:24.703Z,25.72
2023-05-24T21:33:53.421Z,25.72
2023-05-24T21:36:21.465Z,25.72
2023-05-24T21:38:51.989Z,25.73
2023-05-24T21:41:21.138Z,25.72
2023-05-24T21:43:49.818Z,25.71
2023-05-24T21:46:18.791Z,25.70
2023-05-24T21:48:48.972Z,25.70
2023-05-24T21:51:16.986Z,25.69
2023-05-24T21:54:05.545Z,25.70
2023-05-24T21:56:33.659Z,25.69
2023-05-24T21:59:02.495Z,25.67
2023-05-24T22:01:30.687Z,25.67
2023-05-24T22:04:00.648Z,25.67
2023-05-24T22:06:28.779Z,25.66
2023-05-24T22:09:04.229Z,25.67
2023-05-24T22:11:35.239Z,25.66
2023-05-24T22:14:03.557Z,25.66
2023-05-24T22:16:31.605Z,25.66
2023-05-24T22:19:01.342Z,25.68
2023-05-24T22:21:32.998Z,25.67
2023-05-24T22:24:01.975Z,25.65
2023-05-24T22:26:30.667Z,25.65
2023-05-24T22:29:04.124Z,25.66
2023-05-24T22:31:33.460Z,25.66
2023-05-24T22:34:02.677Z,25.66
2023-05-24T22:36:33.128Z,25.66
2023-05-24T22:39:01.957Z,25.65
2023-05-24T22:41:29.973Z,25.66
2023-05-24T22:43:59.734Z,25.66
2023-05-24T22:46:27.948Z,25.65
2023-05-24T22:48:57.761Z,25.65
2023-05-24T22:51:26.303Z,25.65
2023-05-24T22:53:54.840Z,25.65
2023-05-24T22:56:23.358Z,25.65
2023-05-24T22:58:53.224Z,25.64
2023-05-24T23:01:22.696Z,25.63
2023-05-24T23:03:50.898Z,25.63
2023-05-24T23:06:21.164Z,25.63
2023-05-24T23:08:50.164Z,25.63
2023-05-24T23:11:18.212Z,25.64
2023-05-24T23:13:46.470Z,25.61
2023-05-24T23:16:18.006Z,25.61
2023-05-24T23:18:47.463Z,25.61
2023-05-24T23:21:16.707Z,25.61
2023-05-24T23:23:46.314Z,25.60
2023-05-24T23:26:14.445Z,25.60
2023-05-24T23:28:43.233Z,25.61
2023-05-24T23:31:12.342Z,25.60
2023-05-24T23:33:40.286Z,25.59
2023-05-24T23:36:10.569Z,25.58
2023-05-24T23:38:38.630Z,25.60
2023-05-24T23:41:06.806Z,25.59
2023-05-24T23:43:35.037Z,25.59
2023-05-24T23:46:03.131Z,25.59
2023-05-24T23:48:31.205Z,25.59
2023-05-24T23:50:59.152Z,25.58
2023-05-24T23:53:28.518Z,25.59
2023-05-24T23:55:57.068Z,25.58
2023-05-24T23:58:25.058Z,25.57
